Lost Springs, WY (82224)

6:49 AM MDT on September 26, 2017 (GMT -0600)
Converse County | | Change Station
Active Advisory: Frost Advisory

Elev 4928 ft 42.80 °N, 105.39 °W | Updated 56 minutes ago

Clear
Clear
30 °F
Feels Like 30 °F
N
0
Wind Variable Wind from North

Today
High -- | Low -- °F
--% Chance of Precip.
Yesterday
High -- | Low -- °F
Precip. -- in
Pressure 30.16 in
Visibility 10.0 miles
Clouds Clear
Dew Point 29 °F
Humidity 96%
Rainfall 0.00 in
Snow Depth Not available.
6:51 AM 6:48 PM
Waxing Crescent, 35% visible
METAR KDGW 261153Z AUTO 00000KT 10SM CLR M01/M02 A3015 RMK AO2 SLP213 70001 T10111017 10044 21011 53005
Pressure 30.16 in
Visibility 10.0 miles
Clouds Clear
Dew Point 29 °F
Humidity 96%
Rainfall 0.00 in
Snow Depth Not available.
6:51 AM 6:48 PM
Waxing Crescent, 35% visible
METAR KDGW 261153Z AUTO 00000KT 10SM CLR M01/M02 A3015 RMK AO2 SLP213 70001 T10111017 10044 21011 53005

Get Your Daily Forecast Email!

Thanks for signing up!

Be on the lookout for a verification email in your inbox.

You'll start receiving severe weather alerts in your inbox..

×

10-Day Weather Forecast

Almanac

Astronomy

Sep. 26, 2017 Rise Set
Actual Time
Civil Twilight
Nautical Twilight
Astronomical Twilight
Moon
Length of Visible Light
Length of Day
Tomorrow will be .
, % of the Moon is Illuminated

Today's Extremes

State Highs State Lows

Community

WunderPhotos

Category 6

Welcome to Category 6. This is the collective home for Weather Underground's featured writeups by Dr. Jeff Masters (right), Bob Henson (left), Chris Burt, and other regular contributors.

Nearby

Air Quality

  Air Quality AQ Index Pollutant
Not available.

Snow Depth

Station Depth Elevation

Earthquake Activity

City Distance Mag. Time & Date
Minimum magnitude displayed is 2.5.

Coastal Water Temperatures

Place Temperature

Stations

Nearby Weather Stations

Station Location Temp. Windchill Dew Point Humidity Wind Precip. Elev Updated Type
                   

Watches & Warnings

Frost Advisory
Issued: 6:44 AM MDT Sep. 26, 2017 – National Weather Service

... Frost advisory will expire at 7 am MDT this morning...

Temperatures bottomed out in the lower to mid 30s early this
morning, and will begin rising after 7 am.